createdAt,value
2023-01-05T00:00:32.899Z,3.59
2023-01-05T00:01:52.614Z,3.84
2023-01-05T00:02:54.447Z,4.53
2023-01-05T00:03:56.793Z,3.79
2023-01-05T00:04:58.728Z,3.77
2023-01-05T00:06:06.871Z,3.92
2023-01-05T00:07:08.698Z,4.03
2023-01-05T00:08:10.694Z,3.88
2023-01-05T00:09:16.997Z,3.79
2023-01-05T00:10:37.642Z,3.70
2023-01-05T00:11:58.233Z,3.69
2023-01-05T00:13:18.716Z,3.79
2023-01-05T00:14:42.503Z,3.58
2023-01-05T00:16:03.166Z,3.36
2023-01-05T00:17:25.096Z,3.68
2023-01-05T00:18:45.487Z,3.44
2023-01-05T00:20:06.424Z,3.17
2023-01-05T00:21:33.244Z,3.29
2023-01-05T00:22:44.434Z,3.24
2023-01-05T00:23:46.283Z,3.38
2023-01-05T00:24:48.393Z,3.22
2023-01-05T00:25:50.438Z,3.18
2023-01-05T00:26:52.393Z,3.17
2023-01-05T00:27:56.534Z,3.43
2023-01-05T00:28:58.551Z,3.37
2023-01-05T00:30:01.366Z,3.66
2023-01-05T00:31:03.675Z,3.41
2023-01-05T00:32:05.790Z,3.59
2023-01-05T00:33:09.238Z,3.66
2023-01-05T00:34:11.192Z,3.30
2023-01-05T00:35:15.257Z,3.58
2023-01-05T00:36:17.205Z,3.32
2023-01-05T00:37:19.189Z,3.43
2023-01-05T00:38:21.039Z,2.93
2023-01-05T00:39:22.945Z,2.92
2023-01-05T00:40:24.886Z,2.98
2023-01-05T00:41:26.763Z,2.94
2023-01-05T00:42:28.586Z,2.96
2023-01-05T00:43:30.885Z,3.27
2023-01-05T00:44:32.751Z,2.99
2023-01-05T00:45:34.763Z,3.31
2023-01-05T00:46:36.616Z,2.98
2023-01-05T00:47:38.590Z,3.03
2023-01-05T00:48:40.631Z,2.90
2023-01-05T00:49:42.830Z,2.68
2023-01-05T00:50:46.650Z,3.14
2023-01-05T00:51:48.617Z,3.36
2023-01-05T00:52:50.905Z,2.87
2023-01-05T00:53:52.792Z,3.04
2023-01-05T00:54:54.865Z,2.96
2023-01-05T00:56:00.461Z,2.94
2023-01-05T00:57:02.986Z,2.87
2023-01-05T00:58:04.950Z,2.91
2023-01-05T00:59:06.798Z,3.41
2023-01-05T01:00:13.541Z,3.04
2023-01-05T01:01:15.679Z,3.38
2023-01-05T01:02:17.955Z,3.55
2023-01-05T01:03:21.055Z,3.49
2023-01-05T01:04:23.513Z,3.96
2023-01-05T01:05:25.435Z,3.47
2023-01-05T01:06:28.539Z,3.13
2023-01-05T01:07:30.496Z,3.10
2023-01-05T01:08:32.662Z,3.04
2023-01-05T01:09:35.389Z,3.66
2023-01-05T01:10:40.476Z,3.33
2023-01-05T01:11:42.676Z,3.31
2023-01-05T01:12:44.428Z,2.97
2023-01-05T01:13:46.288Z,3.10
2023-01-05T01:14:49.409Z,2.93
2023-01-05T01:15:51.639Z,2.52
2023-01-05T01:16:53.685Z,2.89
2023-01-05T01:17:55.568Z,3.15
2023-01-05T01:18:59.654Z,3.08
2023-01-05T01:20:05.501Z,2.93
2023-01-05T01:21:08.321Z,3.49
2023-01-05T01:24:31.818Z,3.32
2023-01-05T01:25:33.748Z,2.91
2023-01-05T01:26:35.576Z,2.78
2023-01-05T01:27:37.449Z,3.94
2023-01-05T01:28:39.885Z,3.71
2023-01-05T01:29:41.828Z,3.41
2023-01-05T01:30:43.718Z,3.83
2023-01-05T01:31:49.045Z,3.80
2023-01-05T01:32:51.237Z,3.60
2023-01-05T01:33:53.121Z,3.61
2023-01-05T01:34:55.321Z,3.49
2023-01-05T01:35:58.058Z,3.41
2023-01-05T01:38:07.328Z,4.21
2023-01-05T01:39:09.905Z,3.45
2023-01-05T01:40:13.945Z,2.95
2023-01-05T01:41:15.746Z,3.38
2023-01-05T01:42:17.896Z,3.51
2023-01-05T01:43:43.521Z,3.41
2023-01-05T01:44:58.321Z,3.06
2023-01-05T01:46:04.894Z,3.20
2023-01-05T01:47:07.963Z,2.85
2023-01-05T01:48:14.090Z,3.39
2023-01-05T01:49:16.093Z,3.32
2023-01-05T01:50:26.770Z,3.11
2023-01-05T01:51:33.459Z,2.75
2023-01-05T01:52:37.031Z,3.12
2023-01-05T01:53:43.404Z,2.96
2023-01-05T01:54:46.082Z,3.42
2023-01-05T01:55:48.196Z,3.15
2023-01-05T01:56:55.868Z,3.23
2023-01-05T01:58:01.546Z,3.32
2023-01-05T01:59:03.639Z,3.30
2023-01-05T02:00:09.536Z,3.37
2023-01-05T02:01:20.654Z,4.09
2023-01-05T02:02:23.785Z,3.49
2023-01-05T02:03:28.621Z,3.17
2023-01-05T02:04:33.689Z,3.33
2023-01-05T02:05:38.086Z,3.25
2023-01-05T02:06:40.164Z,3.14
2023-01-05T02:07:47.454Z,3.48
2023-01-05T02:08:50.107Z,2.81
2023-01-05T02:09:52.595Z,3.20
2023-01-05T02:11:21.801Z,2.93
2023-01-05T02:12:32.341Z,3.64
2023-01-05T02:13:48.773Z,3.83
2023-01-05T02:15:19.330Z,3.87
2023-01-05T02:16:47.531Z,3.17
2023-01-05T02:18:21.149Z,3.06
2023-01-05T02:20:00.890Z,3.15
2023-01-05T02:21:14.898Z,2.76
2023-01-05T02:22:50.790Z,2.49
2023-01-05T02:24:30.598Z,2.07
2023-01-05T02:26:21.911Z,2.04
2023-01-05T02:27:42.427Z,1.70
2023-01-05T02:29:10.679Z,1.88
2023-01-05T02:30:40.545Z,1.97
2023-01-05T02:32:29.865Z,1.92
2023-01-05T02:34:03.212Z,1.57
2023-01-05T02:35:23.307Z,1.59
2023-01-05T02:36:58.990Z,1.62
2023-01-05T02:38:14.507Z,1.43
2023-01-05T02:39:29.633Z,1.44
2023-01-05T02:40:42.296Z,1.45
2023-01-05T02:41:59.765Z,1.42
2023-01-05T02:43:05.136Z,1.73
2023-01-05T02:44:10.929Z,1.91
2023-01-05T02:45:16.440Z,1.57
2023-01-05T02:46:19.288Z,1.97
2023-01-05T02:47:30.340Z,1.54
2023-01-05T02:48:40.037Z,1.59
2023-01-05T02:49:41.955Z,1.62
2023-01-05T02:51:05.799Z,1.43
2023-01-05T02:52:12.054Z,1.37
2023-01-05T02:53:31.791Z,1.35
2023-01-05T02:54:55.250Z,1.16
2023-01-05T02:56:07.797Z,1.29
2023-01-05T02:57:19.665Z,1.21
2023-01-05T02:58:33.044Z,0.96
2023-01-05T02:59:44.826Z,1.24
2023-01-05T03:00:55.501Z,0.72
2023-01-05T03:02:17.116Z,1.07
2023-01-05T03:03:34.603Z,1.00
2023-01-05T03:04:47.209Z,1.04
2023-01-05T03:06:27.322Z,1.14
2023-01-05T03:07:37.766Z,0.88
2023-01-05T03:08:49.892Z,1.02
2023-01-05T03:09:53.168Z,0.94
2023-01-05T03:11:34.229Z,0.94
2023-01-05T03:12:56.488Z,0.82
2023-01-05T03:14:22.747Z,0.71
2023-01-05T03:15:32.605Z,0.52
2023-01-05T03:16:37.983Z,0.85
2023-01-05T03:18:05.863Z,0.80
2023-01-05T03:19:32.196Z,0.78
2023-01-05T03:20:37.780Z,0.60
2023-01-05T03:22:00.335Z,0.68
2023-01-05T03:23:29.618Z,0.70
2023-01-05T03:24:50.369Z,0.60
2023-01-05T03:26:14.295Z,0.64
2023-01-05T03:27:36.539Z,0.55
2023-01-05T03:29:03.299Z,0.82
2023-01-05T03:30:29.052Z,0.62
2023-01-05T03:31:57.872Z,0.51
2023-01-05T03:33:38.854Z,0.61
2023-01-05T03:35:10.789Z,0.57
2023-01-05T03:36:19.239Z,0.54
2023-01-05T03:37:46.537Z,0.46
2023-01-05T03:38:53.133Z,0.54
2023-01-05T03:39:55.053Z,0.55
2023-01-05T03:41:02.989Z,0.47
2023-01-05T03:42:05.768Z,0.49
2023-01-05T03:43:08.276Z,0.58
2023-01-05T03:44:11.012Z,0.56
2023-01-05T03:45:17.376Z,0.47
2023-01-05T03:46:22.791Z,0.57
2023-01-05T03:47:24.929Z,0.53
2023-01-05T03:48:29.407Z,0.69
2023-01-05T03:49:32.064Z,0.64
2023-01-05T03:50:36.462Z,0.48
2023-01-05T03:51:41.920Z,0.73
2023-01-05T03:52:44.404Z,0.82
2023-01-05T03:53:46.538Z,0.83
2023-01-05T03:54:48.433Z,0.85
2023-01-05T03:55:50.629Z,0.72
2023-01-05T03:56:53.112Z,0.78
2023-01-05T03:57:56.123Z,0.86
2023-01-05T03:58:58.611Z,0.72
2023-01-05T04:00:00.934Z,0.77
2023-01-05T04:01:03.916Z,0.59
2023-01-05T04:02:07.392Z,0.94
2023-01-05T04:03:10.655Z,1.01
2023-01-05T04:04:13.112Z,1.17
2023-01-05T04:05:15.159Z,1.24
2023-01-05T04:06:17.544Z,1.33
2023-01-05T04:07:20.042Z,1.69
2023-01-05T04:08:22.764Z,1.86
2023-01-05T04:09:25.210Z,2.14
2023-01-05T04:10:27.257Z,2.33
2023-01-05T04:11:29.423Z,1.98
2023-01-05T04:12:34.663Z,2.22
2023-01-05T04:13:37.065Z,2.18
2023-01-05T04:14:39.260Z,1.91
2023-01-05T04:15:41.629Z,1.94
2023-01-05T04:16:44.172Z,1.74
2023-01-05T04:17:55.202Z,1.54
2023-01-05T04:18:57.307Z,2.24
2023-01-05T04:19:59.266Z,1.70
2023-01-05T04:21:01.445Z,1.58
2023-01-05T04:22:03.587Z,1.36
2023-01-05T04:23:06.046Z,1.61
2023-01-05T04:24:11.031Z,2.06
2023-01-05T04:25:13.947Z,2.00
2023-01-05T04:26:17.794Z,1.67
2023-01-05T04:27:23.306Z,1.69
2023-01-05T04:28:26.743Z,1.48
2023-01-05T04:29:30.277Z,1.39
2023-01-05T04:30:32.854Z,1.86
2023-01-05T04:31:35.064Z,1.64
2023-01-05T04:32:37.484Z,1.57
2023-01-05T04:33:40.187Z,1.74
2023-01-05T04:34:42.667Z,1.66
2023-01-05T04:35:44.718Z,1.76
2023-01-05T04:36:48.153Z,2.01
2023-01-05T04:37:50.856Z,1.73
2023-01-05T04:38:52.806Z,2.00
2023-01-05T04:39:55.315Z,1.71
2023-01-05T04:40:57.455Z,2.31
2023-01-05T04:42:00.341Z,2.31
2023-01-05T04:43:03.396Z,2.11
2023-01-05T04:44:05.791Z,1.83
2023-01-05T04:45:08.381Z,1.20
2023-01-05T04:46:11.320Z,2.24
2023-01-05T04:47:13.280Z,5.10
2023-01-05T04:48:17.329Z,3.65
2023-01-05T04:49:19.818Z,4.61
2023-01-05T04:50:24.222Z,4.04
2023-01-05T04:51:26.425Z,4.20
2023-01-05T04:52:28.461Z,2.58
2023-01-05T04:53:30.642Z,3.81
2023-01-05T04:54:32.966Z,1.87
2023-01-05T04:55:35.090Z,1.46
2023-01-05T04:56:38.449Z,2.26
2023-01-05T04:57:41.331Z,4.01
2023-01-05T04:58:43.978Z,2.32
2023-01-05T04:59:46.044Z,4.37
2023-01-05T05:00:50.926Z,3.45
2023-01-05T05:01:53.204Z,3.01
2023-01-05T05:02:55.623Z,3.10
2023-01-05T05:03:58.336Z,1.50
2023-01-05T05:05:00.903Z,1.72
2023-01-05T05:06:02.802Z,5.66
2023-01-05T05:07:05.130Z,1.89
2023-01-05T05:08:07.447Z,2.15
2023-01-05T05:09:10.083Z,1.92
2023-01-05T05:10:13.063Z,2.55
2023-01-05T05:11:16.562Z,2.68
2023-01-05T05:12:20.914Z,2.03
2023-01-05T05:13:25.296Z,2.31
2023-01-05T05:14:27.964Z,2.06
2023-01-05T05:15:32.834Z,1.82
2023-01-05T05:16:36.193Z,1.43
2023-01-05T05:17:38.647Z,1.85
2023-01-05T05:18:40.461Z,1.81
2023-01-05T05:19:45.530Z,1.99
2023-01-05T05:20:51.397Z,2.36
2023-01-05T05:21:53.486Z,2.11
2023-01-05T05:22:55.709Z,2.50
2023-01-05T05:23:58.055Z,2.19
2023-01-05T05:24:59.872Z,3.79
2023-01-05T05:26:01.999Z,2.42
2023-01-05T05:27:04.787Z,3.24
2023-01-05T05:28:06.880Z,3.98
2023-01-05T05:29:08.798Z,2.69
2023-01-05T05:30:11.512Z,2.42
2023-01-05T05:31:13.376Z,2.64
2023-01-05T05:32:15.550Z,2.50
2023-01-05T05:33:17.553Z,2.90
2023-01-05T05:34:20.228Z,3.11
2023-01-05T05:35:22.161Z,2.90
2023-01-05T05:36:24.017Z,2.41
2023-01-05T05:37:25.895Z,2.68
2023-01-05T05:38:28.005Z,2.98
2023-01-05T05:39:30.203Z,3.18
2023-01-05T05:40:32.188Z,3.13
2023-01-05T05:41:34.445Z,3.31
2023-01-05T05:42:36.449Z,3.38
2023-01-05T05:43:38.540Z,3.64
2023-01-05T05:44:40.300Z,3.21
2023-01-05T05:45:49.540Z,2.80
2023-01-05T05:46:52.007Z,2.52
2023-01-05T05:47:54.136Z,2.63
2023-01-05T05:48:58.651Z,3.37
2023-01-05T05:50:00.655Z,3.72
2023-01-05T05:51:02.577Z,3.68
2023-01-05T05:52:04.657Z,3.46
2023-01-05T05:53:07.025Z,3.22
2023-01-05T05:54:09.005Z,2.78
2023-01-05T05:55:10.823Z,3.57
2023-01-05T05:56:12.744Z,2.98
2023-01-05T05:57:15.063Z,2.42
2023-01-05T05:58:20.375Z,2.70
2023-01-05T05:59:22.382Z,2.91
2023-01-05T06:00:24.240Z,3.22
2023-01-05T06:01:26.257Z,2.90
2023-01-05T06:02:28.534Z,3.05
2023-01-05T06:03:30.666Z,3.00
2023-01-05T06:04:32.545Z,2.74
2023-01-05T06:05:34.531Z,2.93
2023-01-05T06:06:36.373Z,2.96
2023-01-05T06:07:38.292Z,3.44
2023-01-05T06:08:40.570Z,3.72
2023-01-05T06:09:42.492Z,3.64
2023-01-05T06:10:44.508Z,3.75
2023-01-05T06:11:46.727Z,2.99
2023-01-05T06:12:48.624Z,2.90
2023-01-05T06:13:50.478Z,2.92
2023-01-05T06:14:52.242Z,2.99
2023-01-05T06:15:54.730Z,3.18
2023-01-05T06:16:56.730Z,4.25
2023-01-05T06:17:58.678Z,3.70
2023-01-05T06:19:01.486Z,3.20
2023-01-05T06:20:04.420Z,3.63
2023-01-05T06:21:07.498Z,3.31
2023-01-05T06:22:09.230Z,3.70
2023-01-05T06:23:11.154Z,3.70
2023-01-05T06:24:13.065Z,4.43
2023-01-05T06:25:15.034Z,4.19
2023-01-05T06:26:16.805Z,4.34
2023-01-05T06:27:18.983Z,5.56
2023-01-05T06:28:20.956Z,3.79
2023-01-05T06:29:22.756Z,3.93
2023-01-05T06:30:25.045Z,3.19
2023-01-05T06:31:27.192Z,3.51
2023-01-05T06:32:29.193Z,3.12
2023-01-05T06:33:30.974Z,3.25
2023-01-05T06:34:32.843Z,2.84
2023-01-05T06:35:34.679Z,2.89
2023-01-05T06:36:36.559Z,3.19
2023-01-05T06:37:38.340Z,2.79
2023-01-05T06:38:40.163Z,3.01
2023-01-05T06:39:42.556Z,4.17
2023-01-05T06:40:46.658Z,3.69
2023-01-05T06:41:48.471Z,3.52
2023-01-05T06:42:50.244Z,3.90
2023-01-05T06:43:52.095Z,6.47
2023-01-05T06:44:54.344Z,5.04
2023-01-05T06:45:56.422Z,4.41
2023-01-05T06:46:58.330Z,4.02
2023-01-05T06:48:01.155Z,3.72
2023-01-05T06:49:03.001Z,3.37
2023-01-05T06:50:05.697Z,4.49
2023-01-05T06:51:07.561Z,4.42
2023-01-05T06:52:15.800Z,4.10
2023-01-05T06:53:18.362Z,4.11
2023-01-05T06:54:20.534Z,4.07
2023-01-05T06:55:22.478Z,4.46
2023-01-05T06:56:24.250Z,4.42
2023-01-05T06:57:26.017Z,4.43
2023-01-05T06:58:27.814Z,4.12
2023-01-05T06:59:29.568Z,4.40
2023-01-05T07:00:32.665Z,4.08
2023-01-05T07:01:34.633Z,3.79
2023-01-05T07:02:36.697Z,4.04
2023-01-05T07:03:38.658Z,4.24
2023-01-05T07:04:40.609Z,3.78
2023-01-05T07:05:42.542Z,3.23
2023-01-05T07:06:44.852Z,3.12
2023-01-05T07:07:46.597Z,2.71
2023-01-05T07:08:48.593Z,2.83
2023-01-05T07:09:50.440Z,2.93
2023-01-05T07:10:52.370Z,3.27
2023-01-05T07:11:54.124Z,3.26
2023-01-05T07:12:56.497Z,3.00
2023-01-05T07:13:58.270Z,3.21
2023-01-05T07:14:59.995Z,3.18
2023-01-05T07:16:02.320Z,3.31
2023-01-05T07:17:04.436Z,3.10
2023-01-05T07:18:06.211Z,3.57
2023-01-05T07:19:08.113Z,4.01
2023-01-05T07:20:10.109Z,3.69
2023-01-05T07:21:11.992Z,4.14
2023-01-05T07:22:13.772Z,4.78
2023-01-05T07:23:15.475Z,4.43
2023-01-05T07:24:17.269Z,4.11
2023-01-05T07:25:19.228Z,3.65
2023-01-05T07:26:21.136Z,4.46
2023-01-05T07:27:22.968Z,4.03
2023-01-05T07:28:24.728Z,3.69
2023-01-05T07:29:27.250Z,3.51
2023-01-05T07:30:29.002Z,3.23
2023-01-05T07:31:30.874Z,2.97
2023-01-05T07:32:32.859Z,3.18
2023-01-05T07:33:39.880Z,3.02
2023-01-05T07:34:47.586Z,2.95
2023-01-05T07:35:53.156Z,3.16
2023-01-05T07:36:54.949Z,3.09
2023-01-05T07:37:57.405Z,3.06
2023-01-05T07:38:59.706Z,3.09
2023-01-05T07:40:01.599Z,3.22
2023-01-05T07:41:03.760Z,3.71
2023-01-05T07:42:05.854Z,3.01
2023-01-05T07:43:08.164Z,3.32
2023-01-05T07:44:10.003Z,2.94
2023-01-05T07:45:11.757Z,2.97
2023-01-05T07:46:13.628Z,2.62
2023-01-05T07:47:15.507Z,3.08
2023-01-05T07:48:23.233Z,2.87
2023-01-05T07:49:25.584Z,2.88
2023-01-05T07:50:27.439Z,2.51
2023-01-05T07:51:30.163Z,2.80
2023-01-05T07:52:33.183Z,2.76
2023-01-05T07:53:43.875Z,2.38
2023-01-05T07:54:46.517Z,2.19
2023-01-05T07:56:01.980Z,2.27
2023-01-05T07:57:04.060Z,2.21
2023-01-05T07:58:05.871Z,2.26
2023-01-05T07:59:07.838Z,2.45
2023-01-05T08:00:10.997Z,2.45
2023-01-05T08:01:18.507Z,2.60
2023-01-05T08:02:20.854Z,2.41
2023-01-05T08:03:23.239Z,2.63
2023-01-05T08:04:25.154Z,2.44
2023-01-05T08:05:30.509Z,2.47
2023-01-05T08:06:34.116Z,2.50
2023-01-05T08:07:36.613Z,2.21
2023-01-05T08:08:38.617Z,2.10
2023-01-05T08:09:59.544Z,1.83
2023-01-05T08:11:09.412Z,2.08
2023-01-05T08:12:11.206Z,2.41
2023-01-05T08:13:31.670Z,2.20
2023-01-05T08:14:33.464Z,2.11
2023-01-05T08:15:35.356Z,2.25
2023-01-05T08:16:37.200Z,2.42
2023-01-05T08:17:41.159Z,2.34
2023-01-05T08:18:42.952Z,2.17
2023-01-05T08:19:44.739Z,2.31
2023-01-05T08:20:55.514Z,2.13
2023-01-05T08:21:57.632Z,1.81
2023-01-05T08:22:59.488Z,1.93
2023-01-05T08:24:01.719Z,2.00
2023-01-05T08:25:04.340Z,1.69
2023-01-05T08:26:12.236Z,2.10
2023-01-05T08:27:14.166Z,2.19
2023-01-05T08:28:16.465Z,1.85
2023-01-05T08:29:18.813Z,1.74
2023-01-05T08:30:21.061Z,1.97
2023-01-05T08:31:26.236Z,1.86
2023-01-05T08:32:28.145Z,1.86
2023-01-05T08:33:30.068Z,1.98
2023-01-05T08:34:34.884Z,1.91
2023-01-05T08:35:44.634Z,1.82
2023-01-05T08:36:46.837Z,1.99
2023-01-05T08:37:48.546Z,1.54
2023-01-05T08:38:55.108Z,1.79
2023-01-05T08:39:57.575Z,1.55
2023-01-05T08:41:00.658Z,1.33
2023-01-05T08:42:03.083Z,1.74
2023-01-05T08:43:06.613Z,1.50
2023-01-05T08:44:13.387Z,1.45
2023-01-05T08:45:16.147Z,1.83
2023-01-05T08:46:19.200Z,1.87
2023-01-05T08:47:26.514Z,1.62
2023-01-05T08:48:29.966Z,1.68
2023-01-05T08:49:31.727Z,1.63
2023-01-05T08:50:33.705Z,1.67
2023-01-05T08:51:36.421Z,1.76
2023-01-05T08:52:38.617Z,1.62
2023-01-05T08:53:40.574Z,1.52
2023-01-05T08:54:43.905Z,1.73
2023-01-05T08:55:45.759Z,1.87
2023-01-05T08:56:50.780Z,1.91
2023-01-05T08:57:53.086Z,2.05
2023-01-05T08:58:59.465Z,2.33
2023-01-05T09:00:01.557Z,1.91
2023-01-05T09:01:11.906Z,1.80
2023-01-05T09:02:13.948Z,2.09
2023-01-05T09:03:16.062Z,2.06
2023-01-05T09:04:18.423Z,1.66
2023-01-05T09:05:20.543Z,1.72
2023-01-05T09:06:22.923Z,2.11
2023-01-05T09:07:24.756Z,2.01
2023-01-05T09:08:26.903Z,2.40
2023-01-05T09:09:28.721Z,1.96
2023-01-05T09:10:30.550Z,1.98
2023-01-05T09:11:33.458Z,1.99
2023-01-05T09:12:36.583Z,2.25
2023-01-05T09:13:39.955Z,2.50
2023-01-05T09:14:41.797Z,2.23
2023-01-05T09:15:43.608Z,2.21
2023-01-05T09:18:07.764Z,2.92
2023-01-05T09:19:10.091Z,2.57
2023-01-05T09:20:12.033Z,2.41
2023-01-05T09:21:14.197Z,2.45
2023-01-05T09:22:15.897Z,2.39
2023-01-05T09:23:17.850Z,2.68
2023-01-05T09:24:20.225Z,2.60
2023-01-05T09:25:22.154Z,2.52
2023-01-05T09:26:24.043Z,2.59
2023-01-05T09:27:25.765Z,2.73
2023-01-05T09:28:27.635Z,2.38
2023-01-05T09:29:29.432Z,2.32
2023-01-05T09:30:36.023Z,2.76
2023-01-05T09:31:43.902Z,2.62
2023-01-05T09:32:45.745Z,2.79
2023-01-05T09:33:48.941Z,2.69
2023-01-05T09:34:50.680Z,2.63
2023-01-05T09:35:56.471Z,2.49
2023-01-05T09:36:58.378Z,2.39
2023-01-05T09:38:00.542Z,2.30
2023-01-05T09:39:04.623Z,2.11
2023-01-05T09:40:07.444Z,2.33
2023-01-05T09:41:34.185Z,2.37
2023-01-05T09:42:44.428Z,2.07
2023-01-05T09:43:52.419Z,2.23
2023-01-05T09:45:08.698Z,2.42
2023-01-05T09:46:25.009Z,2.32
2023-01-05T09:47:36.236Z,2.05
2023-01-05T09:48:46.637Z,2.51
2023-01-05T09:49:50.653Z,2.07
2023-01-05T09:50:53.800Z,2.21
2023-01-05T09:52:01.794Z,2.22
2023-01-05T09:53:05.961Z,2.43
2023-01-05T09:54:17.472Z,2.22
2023-01-05T09:55:23.421Z,2.07
2023-01-05T09:58:02.984Z,1.84
2023-01-05T09:59:18.898Z,2.03
2023-01-05T10:00:24.159Z,2.54
2023-01-05T10:01:26.211Z,2.05
2023-01-05T10:02:37.471Z,2.78
2023-01-05T10:04:05.121Z,2.57
2023-01-05T10:05:10.570Z,2.34
2023-01-05T10:06:15.157Z,2.50
2023-01-05T10:07:29.867Z,2.25
2023-01-05T10:08:41.215Z,2.32
2023-01-05T10:09:46.291Z,2.13
2023-01-05T10:11:16.609Z,2.78
2023-01-05T10:12:45.333Z,2.37
2023-01-05T10:14:03.280Z,2.36
2023-01-05T10:15:20.823Z,2.45
2023-01-05T10:16:29.090Z,2.85
2023-01-05T10:17:44.213Z,2.34
2023-01-05T10:18:47.566Z,2.52
2023-01-05T10:19:50.654Z,2.62
2023-01-05T10:21:12.476Z,2.76
2023-01-05T10:22:35.160Z,2.27
2023-01-05T10:24:02.348Z,2.10
2023-01-05T10:25:46.410Z,2.43
2023-01-05T10:27:28.685Z,2.36
2023-01-05T10:28:40.159Z,2.59
2023-01-05T10:29:46.382Z,2.54
2023-01-05T10:30:59.585Z,2.58
2023-01-05T10:32:17.039Z,2.58
2023-01-05T10:33:39.108Z,2.37
2023-01-05T10:35:02.673Z,2.79
2023-01-05T10:36:41.345Z,2.40
2023-01-05T10:38:13.452Z,2.23
2023-01-05T10:40:20.953Z,2.28
2023-01-05T10:42:06.320Z,2.12
2023-01-05T10:43:24.078Z,1.92
2023-01-05T10:44:28.847Z,1.91
2023-01-05T10:45:32.362Z,2.34
2023-01-05T10:46:47.191Z,2.37
2023-01-05T10:47:52.660Z,2.27
2023-01-05T10:48:54.957Z,1.85
2023-01-05T10:49:59.305Z,2.13
2023-01-05T10:51:02.658Z,2.11
2023-01-05T10:52:09.562Z,1.79
2023-01-05T10:53:15.266Z,1.94
2023-01-05T10:54:33.125Z,1.82
2023-01-05T10:55:45.534Z,1.88
2023-01-05T10:56:47.385Z,2.46
2023-01-05T10:57:49.049Z,1.91
2023-01-05T10:59:15.452Z,2.05
2023-01-05T11:00:21.446Z,2.56
2023-01-05T11:01:27.910Z,2.75
2023-01-05T11:02:35.555Z,2.16
2023-01-05T11:05:25.470Z,1.79
2023-01-05T11:06:31.447Z,1.84
2023-01-05T11:07:50.981Z,2.28
2023-01-05T11:08:53.506Z,1.96
2023-01-05T11:09:55.609Z,1.81
2023-01-05T11:10:58.734Z,1.91
2023-01-05T11:12:03.392Z,1.61
2023-01-05T11:13:31.005Z,2.22
2023-01-05T11:14:42.528Z,2.16
2023-01-05T11:15:54.117Z,1.97
2023-01-05T11:17:06.342Z,1.70
2023-01-05T11:18:30.919Z,2.10
2023-01-05T11:19:40.658Z,1.77
2023-01-05T11:21:13.892Z,1.69
2023-01-05T11:22:37.242Z,2.78
2023-01-05T11:23:42.415Z,2.54
2023-01-05T11:24:45.571Z,2.11
2023-01-05T11:25:47.352Z,2.20
2023-01-05T11:26:55.335Z,2.41
2023-01-05T11:28:16.541Z,2.03
2023-01-05T11:29:19.457Z,2.25
2023-01-05T11:30:24.631Z,2.24
2023-01-05T11:31:42.986Z,1.82
2023-01-05T11:32:47.030Z,2.02
2023-01-05T11:33:58.414Z,2.21
2023-01-05T11:35:01.321Z,2.13
2023-01-05T11:36:07.004Z,2.09
2023-01-05T11:37:24.318Z,2.24
2023-01-05T11:38:29.332Z,2.19
2023-01-05T11:39:39.071Z,1.98
2023-01-05T11:40:43.912Z,1.88
2023-01-05T11:41:45.727Z,1.91
2023-01-05T11:44:44.024Z,1.71
2023-01-05T11:45:52.232Z,1.89
2023-01-05T11:46:54.533Z,1.96
2023-01-05T11:48:02.056Z,2.74
2023-01-05T11:49:04.026Z,2.09
2023-01-05T11:50:15.441Z,1.55
2023-01-05T11:51:40.671Z,1.80
2023-01-05T11:52:50.709Z,1.77
2023-01-05T11:53:52.466Z,1.93
2023-01-05T11:54:54.321Z,1.98
2023-01-05T11:56:18.299Z,2.43
2023-01-05T11:57:25.928Z,2.04
2023-01-05T11:58:33.530Z,1.92
2023-01-05T11:59:37.958Z,2.22
2023-01-05T12:01:18.336Z,2.22
2023-01-05T12:03:04.639Z,1.82
2023-01-05T12:04:22.433Z,2.06
2023-01-05T12:05:36.600Z,1.94
2023-01-05T12:07:09.142Z,1.74
2023-01-05T12:08:23.887Z,1.96
2023-01-05T12:09:35.336Z,1.93
2023-01-05T12:10:59.295Z,1.89
2023-01-05T12:12:34.832Z,1.89
2023-01-05T12:13:47.107Z,2.14
2023-01-05T12:14:55.138Z,2.15
2023-01-05T12:16:15.062Z,2.18
2023-01-05T12:17:28.755Z,2.02
2023-01-05T12:18:52.227Z,1.99
2023-01-05T12:20:32.724Z,1.78
2023-01-05T12:21:45.657Z,2.69
2023-01-05T12:23:06.088Z,2.46
2023-01-05T12:24:29.796Z,3.10
2023-01-05T12:25:49.944Z,3.25
2023-01-05T12:27:36.530Z,2.87
2023-01-05T12:33:35.420Z,2.24
2023-01-05T12:34:01.313Z,1.99
2023-01-05T12:34:45.380Z,2.28
2023-01-05T12:35:59.729Z,2.28
2023-01-05T12:37:36.321Z,2.17
2023-01-05T12:39:03.694Z,2.45
2023-01-05T12:40:16.281Z,2.93
2023-01-05T12:41:39.305Z,4.33
2023-01-05T12:42:59.072Z,3.89
2023-01-05T12:44:20.072Z,3.69
2023-01-05T12:45:50.134Z,2.22
2023-01-05T12:47:00.977Z,2.27
2023-01-05T12:48:12.167Z,1.89
2023-01-05T12:49:32.783Z,2.44
2023-01-05T12:51:04.928Z,2.02
2023-01-05T12:52:22.625Z,2.73
2023-01-05T12:53:36.480Z,2.03
2023-01-05T12:54:47.559Z,2.03
2023-01-05T12:55:57.495Z,1.87
2023-01-05T12:57:13.189Z,2.35
2023-01-05T12:58:32.428Z,2.33
2023-01-05T13:00:04.636Z,2.01
2023-01-05T13:01:20.929Z,1.92
2023-01-05T13:02:36.850Z,1.82
2023-01-05T13:03:51.396Z,1.78
2023-01-05T13:05:00.072Z,1.60
2023-01-05T13:06:14.960Z,1.55
2023-01-05T13:07:27.484Z,1.61
2023-01-05T13:08:45.044Z,1.85
2023-01-05T13:10:02.083Z,2.22
2023-01-05T13:11:31.170Z,3.15
2023-01-05T13:12:37.371Z,2.81
2023-01-05T13:14:15.886Z,3.49
2023-01-05T13:15:29.488Z,3.67
2023-01-05T13:16:58.782Z,3.04
2023-01-05T13:18:06.073Z,2.71
2023-01-05T13:19:35.986Z,2.54
2023-01-05T13:20:50.939Z,2.00
2023-01-05T13:21:55.331Z,2.42
2023-01-05T13:23:06.655Z,2.13
2023-01-05T13:24:28.576Z,2.08
2023-01-05T13:25:40.519Z,3.55
2023-01-05T13:26:42.353Z,3.07
2023-01-05T13:27:44.249Z,2.60
2023-01-05T13:28:48.879Z,4.15
2023-01-05T13:29:59.380Z,2.93
2023-01-05T13:31:36.240Z,4.15
2023-01-05T13:32:59.492Z,6.50
2023-01-05T13:34:30.194Z,2.73
2023-01-05T13:35:43.548Z,5.12
2023-01-05T13:37:03.912Z,4.79
2023-01-05T13:38:20.065Z,2.89
2023-01-05T13:39:32.827Z,3.64
2023-01-05T13:41:00.982Z,4.66
2023-01-05T13:42:33.264Z,6.66
2023-01-05T13:43:46.858Z,4.79
2023-01-05T13:45:24.085Z,3.45
2023-01-05T13:46:47.737Z,3.49
2023-01-05T13:48:13.318Z,3.87
2023-01-05T13:49:54.434Z,4.90
2023-01-05T13:51:15.461Z,10.19
2023-01-05T13:52:51.746Z,7.30
2023-01-05T13:53:58.730Z,11.74
2023-01-05T13:55:05.004Z,8.50
2023-01-05T13:56:19.873Z,11.65
2023-01-05T13:57:26.107Z,9.45
2023-01-05T13:58:41.941Z,14.83
2023-01-05T13:59:55.132Z,7.59
2023-01-05T14:00:59.537Z,7.21
2023-01-05T14:02:03.460Z,9.75
2023-01-05T14:03:24.019Z,10.51
2023-01-05T14:04:34.053Z,8.34
2023-01-05T14:05:54.369Z,7.31
2023-01-05T14:07:02.705Z,7.04
2023-01-05T14:08:19.236Z,7.27
2023-01-05T14:09:43.442Z,7.60
2023-01-05T14:11:08.906Z,5.30
2023-01-05T14:12:16.913Z,5.95
2023-01-05T14:13:43.630Z,5.73
2023-01-05T14:15:12.326Z,5.28
2023-01-05T14:16:33.324Z,3.91
2023-01-05T14:17:55.666Z,6.78
2023-01-05T14:19:29.062Z,4.56
2023-01-05T14:20:49.439Z,7.72
2023-01-05T14:21:53.956Z,5.34
2023-01-05T14:22:56.654Z,4.84
2023-01-05T14:23:59.064Z,5.90
2023-01-05T14:25:38.453Z,5.55
2023-01-05T14:27:19.258Z,5.33
2023-01-05T14:28:30.774Z,7.29
2023-01-05T14:29:45.386Z,5.87
2023-01-05T14:30:49.949Z,5.53
2023-01-05T14:31:52.002Z,7.70
2023-01-05T14:32:55.409Z,5.70
2023-01-05T14:33:57.076Z,9.41
2023-01-05T14:35:19.784Z,8.15
2023-01-05T14:36:31.618Z,6.14
2023-01-05T14:37:41.597Z,4.24
2023-01-05T14:38:48.394Z,3.89
2023-01-05T14:39:53.327Z,4.86
2023-01-05T14:40:57.019Z,5.58
2023-01-05T14:42:07.059Z,6.37
2023-01-05T14:43:25.741Z,5.07
2023-01-05T14:44:46.969Z,5.45
2023-01-05T14:46:14.826Z,9.03
2023-01-05T14:47:34.277Z,5.34
2023-01-05T14:48:43.295Z,7.49
2023-01-05T14:50:03.709Z,6.44
2023-01-05T14:51:31.049Z,5.36
2023-01-05T14:52:53.330Z,5.75
2023-01-05T14:54:00.123Z,5.19
2023-01-05T14:55:07.108Z,6.16
2023-01-05T14:56:34.086Z,5.51
2023-01-05T14:57:47.260Z,4.78
2023-01-05T14:59:11.332Z,4.48
2023-01-05T15:00:28.172Z,3.51
2023-01-05T15:01:49.420Z,3.93
2023-01-05T15:04:33.487Z,2.84
2023-01-05T15:05:49.697Z,2.85
2023-01-05T15:07:26.319Z,3.00
2023-01-05T15:08:54.998Z,3.99
2023-01-05T15:10:16.333Z,3.72
2023-01-05T15:11:46.210Z,3.00
2023-01-05T15:13:43.030Z,2.96
2023-01-05T15:14:57.161Z,2.75
2023-01-05T15:16:27.884Z,2.75
2023-01-05T15:18:04.447Z,3.01
2023-01-05T15:19:39.589Z,3.35
2023-01-05T15:20:47.639Z,3.05
2023-01-05T15:22:38.059Z,2.93
2023-01-05T15:24:03.447Z,3.08
2023-01-05T15:25:31.168Z,3.77
2023-01-05T15:26:57.943Z,4.14
2023-01-05T15:28:11.814Z,4.44
2023-01-05T15:29:36.755Z,4.41
2023-01-05T15:30:57.010Z,5.41
2023-01-05T15:32:26.759Z,3.31
2023-01-05T15:33:58.588Z,3.82
2023-01-05T15:35:24.827Z,3.25
2023-01-05T15:36:35.758Z,2.67
2023-01-05T15:37:41.038Z,2.53
2023-01-05T15:38:47.184Z,3.03